EXS9DJ LEAL-EGCC
Flight info
| Callsign | EXS9DJ |
|---|---|
| Flight time | 2h 11m |
| Altitude | 36000 |
| Route | MITOS3A MITOS N608 COMPI Y90 USKAR N863 GIROM DCT AGN DCT SECHE DCT UVELI DCT CNA DCT TUPAR UY120 AKIKI UN867 AVANT UM184 HEMEL T420 ELVOS ELVOS1M |
| Aircraft | A321/M-SDE3FGHIRWY/LB1 |
Departure
| Time | 2026-05-03 20:46 |
|---|---|
| Airport | Alicante-Elche Miguel Hernández Airport (LEAL) |
Arrival
| Time | 2026-05-03 22:57 |
|---|---|
| Airport | Manchester Airport (EGCC) |
| Time | Latitude | Longitude | Altitude | Speed | Heading |
|---|---|---|---|---|---|
| 2026-05-03 20:46 | 38.35505 | -0.29902 | 10119 ft | 303 kts | 69° |
| 2026-05-03 20:46 | 38.36275 | -0.27409 | 10753 ft | 304 kts | 69° |
| 2026-05-03 20:46 | 38.37091 | -0.24884 | 11233 ft | 311 kts | 68° |
| 2026-05-03 20:46 | 38.37936 | -0.22356 | 11727 ft | 318 kts | 68° |
| 2026-05-03 20:47 | 38.38820 | -0.19735 | 12234 ft | 324 kts | 68° |
| 2026-05-03 20:47 | 38.39716 | -0.17072 | 12745 ft | 330 kts | 68° |
| 2026-05-03 20:47 | 38.40630 | -0.14352 | 13261 ft | 336 kts | 68° |
| 2026-05-03 20:47 | 38.41556 | -0.11585 | 13787 ft | 342 kts | 68° |
| 2026-05-03 20:48 | 38.42656 | -0.08870 | 14264 ft | 347 kts | 56° |
| 2026-05-03 20:48 | 38.44155 | -0.06435 | 14732 ft | 351 kts | 44° |
| 2026-05-03 20:48 | 38.46003 | -0.04387 | 15222 ft | 353 kts | 32° |
| 2026-05-03 20:48 | 38.48125 | -0.02817 | 15713 ft | 353 kts | 20° |
| 2026-05-03 20:49 | 38.50440 | -0.01786 | 16225 ft | 351 kts | 8° |
| 2026-05-03 20:49 | 38.52845 | -0.01332 | 16732 ft | 349 kts | 356° |
| 2026-05-03 20:49 | 38.55272 | -0.01307 | 17247 ft | 350 kts | 354° |
| 2026-05-03 20:49 | 38.57720 | -0.01299 | 17774 ft | 353 kts | 354° |
| 2026-05-03 20:50 | 38.60189 | -0.01284 | 18301 ft | 356 kts | 354° |
| 2026-05-03 20:50 | 38.62675 | -0.01267 | 18769 ft | 359 kts | 354° |
| 2026-05-03 20:50 | 38.65181 | -0.01249 | 19246 ft | 361 kts | 354° |
| 2026-05-03 20:50 | 38.67697 | -0.01228 | 19733 ft | 362 kts | 354° |
| 2026-05-03 20:51 | 38.70226 | -0.01206 | 20219 ft | 364 kts | 354° |
| 2026-05-03 20:51 | 38.72765 | -0.01185 | 20712 ft | 366 kts | 354° |
| 2026-05-03 20:51 | 38.75284 | -0.01168 | 21210 ft | 367 kts | 354° |
| 2026-05-03 20:51 | 38.77839 | -0.01152 | 21719 ft | 367 kts | 354° |
| 2026-05-03 20:52 | 38.80398 | -0.01139 | 22236 ft | 367 kts | 354° |
| 2026-05-03 20:52 | 38.82955 | -0.01124 | 22763 ft | 367 kts | 354° |
| 2026-05-03 20:52 | 38.85510 | -0.01107 | 23308 ft | 367 kts | 354° |
| 2026-05-03 20:52 | 38.88069 | -0.01089 | 23674 ft | 372 kts | 354° |
| 2026-05-03 20:53 | 38.90695 | -0.01073 | 23851 ft | 381 kts | 354° |
| 2026-05-03 20:53 | 38.93370 | -0.01059 | 24018 ft | 389 kts | 354° |
| 2026-05-03 20:53 | 38.96110 | -0.01045 | 24182 ft | 397 kts | 354° |
| 2026-05-03 20:53 | 38.98902 | -0.01029 | 24344 ft | 405 kts | 355° |
| 2026-05-03 20:54 | 39.01749 | -0.01010 | 24510 ft | 413 kts | 355° |
| 2026-05-03 20:54 | 39.07594 | -0.00973 | 24840 ft | 426 kts | 355° |
| 2026-05-03 20:54 | 39.10591 | -0.00955 | 25005 ft | 433 kts | 355° |
| 2026-05-03 20:55 | 39.13627 | -0.00936 | 25192 ft | 439 kts | 355° |
| 2026-05-03 20:55 | 39.16703 | -0.00915 | 25359 ft | 445 kts | 355° |
| 2026-05-03 20:55 | 39.19829 | -0.00890 | 25533 ft | 451 kts | 355° |
| 2026-05-03 20:55 | 39.22946 | -0.00864 | 25701 ft | 457 kts | 355° |
| 2026-05-03 20:56 | 39.26147 | -0.00839 | 25878 ft | 462 kts | 355° |
| 2026-05-03 20:56 | 39.29375 | -0.00815 | 26050 ft | 467 kts | 355° |
| 2026-05-03 20:56 | 39.32640 | -0.00779 | 26221 ft | 472 kts | 357° |
| 2026-05-03 20:56 | 39.35947 | -0.00327 | 26414 ft | 482 kts | 6° |
| 2026-05-03 20:57 | 39.39233 | 0.00742 | 26585 ft | 490 kts | 12° |
| 2026-05-03 20:57 | 39.42526 | 0.01967 | 26761 ft | 494 kts | 12° |
| 2026-05-03 20:57 | 39.44725 | 0.02782 | 26882 ft | 497 kts | 12° |
| 2026-05-03 20:57 | 39.49193 | 0.04429 | 27123 ft | 501 kts | 12° |
| 2026-05-03 20:58 | 39.51418 | 0.05247 | 27242 ft | 503 kts | 12° |
| 2026-05-03 20:58 | 39.54788 | 0.06491 | 27424 ft | 504 kts | 12° |
| 2026-05-03 20:58 | 39.58162 | 0.07740 | 27623 ft | 504 kts | 12° |
| 2026-05-03 20:58 | 39.61533 | 0.08994 | 27810 ft | 504 kts | 12° |
| 2026-05-03 20:59 | 39.66003 | 0.10661 | 28042 ft | 504 kts | 12° |
| 2026-05-03 20:59 | 39.68276 | 0.11509 | 28186 ft | 504 kts | 12° |
| 2026-05-03 20:59 | 39.71643 | 0.12763 | 28362 ft | 503 kts | 12° |
| 2026-05-03 20:59 | 39.76099 | 0.14418 | 28610 ft | 502 kts | 12° |
| 2026-05-03 21:00 | 39.78371 | 0.15262 | 28740 ft | 502 kts | 12° |
| 2026-05-03 21:00 | 39.80602 | 0.16091 | 28881 ft | 502 kts | 12° |
| 2026-05-03 21:00 | 39.85045 | 0.17745 | 29136 ft | 501 kts | 12° |
| 2026-05-03 21:00 | 39.88398 | 0.18999 | 29328 ft | 501 kts | 12° |
| 2026-05-03 21:01 | 39.91752 | 0.20256 | 29525 ft | 500 kts | 12° |
| 2026-05-03 21:01 | 39.95100 | 0.21516 | 29726 ft | 500 kts | 12° |
| 2026-05-03 21:01 | 39.98437 | 0.22769 | 29911 ft | 499 kts | 12° |
| 2026-05-03 21:01 | 40.01771 | 0.24021 | 30119 ft | 499 kts | 12° |
| 2026-05-03 21:02 | 40.05105 | 0.25271 | 30305 ft | 499 kts | 12° |
| 2026-05-03 21:02 | 40.08443 | 0.26517 | 30500 ft | 499 kts | 12° |
| 2026-05-03 21:02 | 40.11781 | 0.27763 | 30675 ft | 498 kts | 12° |
| 2026-05-03 21:02 | 40.15112 | 0.29014 | 30846 ft | 498 kts | 12° |
| 2026-05-03 21:03 | 40.18443 | 0.30271 | 31011 ft | 497 kts | 12° |
| 2026-05-03 21:03 | 40.21763 | 0.31525 | 31200 ft | 497 kts | 12° |
| 2026-05-03 21:03 | 40.25086 | 0.32780 | 31365 ft | 496 kts | 12° |
| 2026-05-03 21:03 | 40.28406 | 0.34035 | 31562 ft | 496 kts | 12° |
| 2026-05-03 21:04 | 40.31725 | 0.35290 | 31740 ft | 496 kts | 12° |
| 2026-05-03 21:04 | 40.35043 | 0.36544 | 31913 ft | 496 kts | 12° |
| 2026-05-03 21:04 | 40.38354 | 0.37801 | 32084 ft | 495 kts | 12° |
| 2026-05-03 21:04 | 40.41659 | 0.39059 | 32259 ft | 494 kts | 12° |
| 2026-05-03 21:05 | 40.44961 | 0.40322 | 32426 ft | 494 kts | 12° |
| 2026-05-03 21:05 | 40.48258 | 0.41584 | 32618 ft | 493 kts | 12° |
| 2026-05-03 21:05 | 40.51514 | 0.42831 | 32807 ft | 493 kts | 12° |
| 2026-05-03 21:05 | 40.54845 | 0.44107 | 32991 ft | 492 kts | 12° |
| 2026-05-03 21:06 | 40.58087 | 0.45347 | 33173 ft | 492 kts | 12° |
| 2026-05-03 21:06 | 40.61371 | 0.46602 | 33369 ft | 491 kts | 12° |
| 2026-05-03 21:06 | 40.64646 | 0.47854 | 33548 ft | 490 kts | 12° |
| 2026-05-03 21:06 | 40.67921 | 0.49106 | 33740 ft | 490 kts | 12° |
| 2026-05-03 21:07 | 40.71197 | 0.50356 | 33939 ft | 489 kts | 12° |
| 2026-05-03 21:07 | 40.74462 | 0.51604 | 34108 ft | 489 kts | 12° |
| 2026-05-03 21:07 | 40.77723 | 0.52856 | 34266 ft | 488 kts | 12° |
| 2026-05-03 21:07 | 40.80982 | 0.54112 | 34449 ft | 488 kts | 12° |
| 2026-05-03 21:08 | 40.84251 | 0.55375 | 34608 ft | 488 kts | 12° |
| 2026-05-03 21:08 | 40.87501 | 0.56636 | 34776 ft | 487 kts | 12° |
| 2026-05-03 21:08 | 40.90753 | 0.57900 | 34957 ft | 487 kts | 12° |
| 2026-05-03 21:08 | 40.94006 | 0.59159 | 35132 ft | 487 kts | 12° |
| 2026-05-03 21:09 | 40.97264 | 0.60417 | 35296 ft | 487 kts | 12° |
| 2026-05-03 21:09 | 41.00517 | 0.61673 | 35488 ft | 487 kts | 12° |
| 2026-05-03 21:09 | 41.03772 | 0.62933 | 35653 ft | 487 kts | 12° |
| 2026-05-03 21:09 | 41.07023 | 0.64195 | 35828 ft | 487 kts | 12° |
| 2026-05-03 21:10 | 41.10275 | 0.65457 | 35977 ft | 487 kts | 12° |
| 2026-05-03 21:10 | 41.13478 | 0.66701 | 36029 ft | 486 kts | 12° |
| 2026-05-03 21:10 | 41.19969 | 0.69222 | 36016 ft | 486 kts | 12° |
| 2026-05-03 21:11 | 41.26460 | 0.71755 | 36012 ft | 486 kts | 12° |
| 2026-05-03 21:11 | 41.32946 | 0.74301 | 36011 ft | 486 kts | 12° |
| 2026-05-03 21:12 | 41.39428 | 0.76845 | 35996 ft | 486 kts | 13° |
| 2026-05-03 21:12 | 41.45925 | 0.79382 | 35998 ft | 487 kts | 13° |
| 2026-05-03 21:13 | 41.52432 | 0.81940 | 36006 ft | 488 kts | 13° |
| 2026-05-03 21:13 | 41.58951 | 0.84514 | 36030 ft | 488 kts | 13° |
| 2026-05-03 21:14 | 41.65473 | 0.87090 | 36034 ft | 489 kts | 13° |
| 2026-05-03 21:14 | 41.71999 | 0.89681 | 36037 ft | 489 kts | 13° |
| 2026-05-03 21:15 | 41.78522 | 0.92270 | 36063 ft | 489 kts | 13° |
| 2026-05-03 21:15 | 41.85050 | 0.94851 | 36034 ft | 489 kts | 13° |
| 2026-05-03 21:16 | 41.91536 | 0.97435 | 36035 ft | 489 kts | 13° |
| 2026-05-03 21:16 | 41.98062 | 1.00044 | 36028 ft | 489 kts | 13° |
| 2026-05-03 21:17 | 42.03488 | 1.02217 | 36036 ft | 489 kts | 13° |
| 2026-05-03 21:17 | 42.11118 | 1.05249 | 36032 ft | 489 kts | 10° |
| 2026-05-03 21:18 | 42.17787 | 1.06199 | 36038 ft | 479 kts | 352° |
| 2026-05-03 21:18 | 42.24407 | 1.05479 | 36055 ft | 477 kts | 351° |
| 2026-05-03 21:19 | 42.31028 | 1.04760 | 36052 ft | 477 kts | 351° |
| 2026-05-03 21:19 | 42.37653 | 1.04064 | 36051 ft | 478 kts | 351° |
| 2026-05-03 21:20 | 42.44282 | 1.03356 | 36055 ft | 478 kts | 351° |
| 2026-05-03 21:20 | 42.50915 | 1.02636 | 36051 ft | 478 kts | 351° |
| 2026-05-03 21:21 | 42.57548 | 1.01908 | 36036 ft | 478 kts | 351° |
| 2026-05-03 21:21 | 42.64190 | 1.01177 | 36041 ft | 479 kts | 351° |
| 2026-05-03 21:22 | 42.70845 | 1.00458 | 36016 ft | 480 kts | 351° |
| 2026-05-03 21:22 | 42.77466 | 0.99735 | 36011 ft | 480 kts | 351° |
| 2026-05-03 21:23 | 42.84125 | 0.99001 | 36001 ft | 481 kts | 351° |
| 2026-05-03 21:23 | 42.90799 | 0.98268 | 35989 ft | 481 kts | 351° |
| 2026-05-03 21:24 | 42.97469 | 0.97530 | 35994 ft | 481 kts | 351° |
| 2026-05-03 21:24 | 43.04146 | 0.96787 | 36002 ft | 482 kts | 351° |
| 2026-05-03 21:25 | 43.10835 | 0.96042 | 35986 ft | 482 kts | 351° |
| 2026-05-03 21:25 | 43.17529 | 0.95309 | 35983 ft | 483 kts | 351° |
| 2026-05-03 21:26 | 43.24227 | 0.94570 | 35992 ft | 483 kts | 351° |
| 2026-05-03 21:26 | 43.30922 | 0.93822 | 35985 ft | 483 kts | 351° |
| 2026-05-03 21:27 | 43.37621 | 0.93067 | 35980 ft | 483 kts | 351° |
| 2026-05-03 21:27 | 43.44318 | 0.92298 | 36007 ft | 483 kts | 351° |
| 2026-05-03 21:28 | 43.51009 | 0.91546 | 35992 ft | 483 kts | 351° |
| 2026-05-03 21:28 | 43.57665 | 0.90804 | 35986 ft | 483 kts | 351° |
| 2026-05-03 21:29 | 43.64357 | 0.90051 | 35996 ft | 483 kts | 350° |
| 2026-05-03 21:29 | 43.71058 | 0.89299 | 35991 ft | 483 kts | 351° |
| 2026-05-03 21:30 | 43.77758 | 0.88553 | 35997 ft | 483 kts | 350° |
| 2026-05-03 21:30 | 43.84459 | 0.87788 | 36001 ft | 483 kts | 350° |
| 2026-05-03 21:31 | 43.90925 | 0.85837 | 35996 ft | 470 kts | 333° |
| 2026-05-03 21:31 | 43.96842 | 0.82105 | 35994 ft | 467 kts | 329° |
| 2026-05-03 21:32 | 44.02736 | 0.78310 | 35989 ft | 467 kts | 329° |
| 2026-05-03 21:32 | 44.08635 | 0.74503 | 35984 ft | 468 kts | 329° |
| 2026-05-03 21:33 | 44.14515 | 0.70689 | 35968 ft | 469 kts | 329° |
| 2026-05-03 21:33 | 44.20446 | 0.66841 | 35965 ft | 470 kts | 329° |
| 2026-05-03 21:34 | 44.26382 | 0.62980 | 35975 ft | 471 kts | 329° |
| 2026-05-03 21:34 | 44.32319 | 0.59102 | 35982 ft | 471 kts | 329° |
| 2026-05-03 21:35 | 44.38254 | 0.55219 | 35985 ft | 471 kts | 329° |
| 2026-05-03 21:35 | 44.44185 | 0.51323 | 36006 ft | 471 kts | 329° |
| 2026-05-03 21:36 | 44.50071 | 0.47427 | 36005 ft | 471 kts | 328° |
| 2026-05-03 21:36 | 44.55992 | 0.43490 | 36006 ft | 471 kts | 328° |
| 2026-05-03 21:37 | 44.61910 | 0.39555 | 36025 ft | 471 kts | 328° |
| 2026-05-03 21:37 | 44.67848 | 0.35600 | 36028 ft | 472 kts | 328° |
| 2026-05-03 21:38 | 44.73788 | 0.31638 | 36018 ft | 473 kts | 328° |
| 2026-05-03 21:38 | 44.79736 | 0.27658 | 36011 ft | 473 kts | 328° |
| 2026-05-03 21:39 | 44.85639 | 0.23694 | 36007 ft | 473 kts | 328° |
| 2026-05-03 21:39 | 44.91579 | 0.19691 | 36003 ft | 473 kts | 328° |
| 2026-05-03 21:40 | 44.97527 | 0.15677 | 36001 ft | 473 kts | 328° |
| 2026-05-03 21:40 | 45.03474 | 0.11655 | 36004 ft | 474 kts | 328° |
| 2026-05-03 21:41 | 45.09413 | 0.07628 | 35994 ft | 474 kts | 328° |
| 2026-05-03 21:41 | 45.15365 | 0.03583 | 35993 ft | 474 kts | 328° |
| 2026-05-03 21:42 | 45.21323 | -0.00469 | 35999 ft | 475 kts | 328° |
| 2026-05-03 21:42 | 45.27294 | -0.04536 | 35984 ft | 477 kts | 328° |
| 2026-05-03 21:43 | 45.33248 | -0.08605 | 35977 ft | 478 kts | 328° |
| 2026-05-03 21:43 | 45.39252 | -0.12715 | 35985 ft | 479 kts | 328° |
| 2026-05-03 21:44 | 45.45258 | -0.16846 | 35980 ft | 480 kts | 328° |
| 2026-05-03 21:44 | 45.51278 | -0.20995 | 35981 ft | 480 kts | 328° |
| 2026-05-03 21:45 | 45.57295 | -0.25151 | 35982 ft | 480 kts | 328° |
| 2026-05-03 21:45 | 45.63271 | -0.29288 | 35995 ft | 480 kts | 328° |
| 2026-05-03 21:46 | 45.69536 | -0.32778 | 35992 ft | 487 kts | 337° |
| 2026-05-03 21:46 | 45.76009 | -0.35683 | 35998 ft | 488 kts | 337° |
| 2026-05-03 21:47 | 45.82485 | -0.38602 | 36003 ft | 488 kts | 337° |
| 2026-05-03 21:47 | 45.88958 | -0.41534 | 36001 ft | 488 kts | 337° |
| 2026-05-03 21:48 | 45.95431 | -0.44478 | 35997 ft | 488 kts | 337° |
| 2026-05-03 21:48 | 46.01904 | -0.47422 | 36004 ft | 488 kts | 336° |
| 2026-05-03 21:49 | 46.08382 | -0.50380 | 35998 ft | 488 kts | 336° |
| 2026-05-03 21:49 | 46.13768 | -0.52841 | 35990 ft | 488 kts | 336° |
| 2026-05-03 21:50 | 46.20242 | -0.55814 | 36001 ft | 488 kts | 336° |
| 2026-05-03 21:50 | 46.26716 | -0.58791 | 35988 ft | 488 kts | 336° |
| 2026-05-03 21:51 | 46.33192 | -0.61774 | 35982 ft | 488 kts | 336° |
| 2026-05-03 21:51 | 46.39663 | -0.64761 | 35992 ft | 488 kts | 336° |
| 2026-05-03 21:52 | 46.45848 | -0.68387 | 35984 ft | 479 kts | 327° |
| 2026-05-03 21:52 | 46.51799 | -0.72753 | 35981 ft | 479 kts | 327° |
| 2026-05-03 21:53 | 46.57754 | -0.77107 | 35992 ft | 479 kts | 327° |
| 2026-05-03 21:53 | 46.63711 | -0.81468 | 36020 ft | 480 kts | 327° |
| 2026-05-03 21:54 | 46.69687 | -0.85867 | 35984 ft | 481 kts | 327° |
| 2026-05-03 21:54 | 46.75671 | -0.90268 | 35977 ft | 482 kts | 327° |
| 2026-05-03 21:55 | 46.81651 | -0.94695 | 35978 ft | 482 kts | 327° |
| 2026-05-03 21:55 | 46.87635 | -0.99131 | 35979 ft | 482 kts | 327° |
| 2026-05-03 21:56 | 46.93772 | -1.03172 | 35976 ft | 490 kts | 338° |
| 2026-05-03 21:56 | 47.00573 | -1.04779 | 35979 ft | 499 kts | 351° |
| 2026-05-03 21:57 | 47.07499 | -1.05687 | 35971 ft | 500 kts | 350° |
| 2026-05-03 21:57 | 47.14427 | -1.06637 | 35967 ft | 500 kts | 350° |
| 2026-05-03 21:58 | 47.21362 | -1.07596 | 35977 ft | 500 kts | 350° |
| 2026-05-03 21:58 | 47.28257 | -1.08550 | 35976 ft | 501 kts | 350° |
| 2026-05-03 21:59 | 47.35190 | -1.09502 | 35975 ft | 501 kts | 350° |
| 2026-05-03 21:59 | 47.42137 | -1.10452 | 35987 ft | 501 kts | 350° |
| 2026-05-03 22:00 | 47.49086 | -1.11403 | 35982 ft | 501 kts | 350° |
| 2026-05-03 22:00 | 47.56039 | -1.12361 | 35981 ft | 501 kts | 350° |
| 2026-05-03 22:01 | 47.62980 | -1.13324 | 35990 ft | 501 kts | 350° |
| 2026-05-03 22:01 | 47.69922 | -1.14301 | 35984 ft | 501 kts | 350° |
| 2026-05-03 22:02 | 47.76866 | -1.15276 | 35981 ft | 501 kts | 350° |
| 2026-05-03 22:02 | 47.83812 | -1.16235 | 35995 ft | 501 kts | 351° |
| 2026-05-03 22:03 | 47.90701 | -1.17191 | 35996 ft | 500 kts | 350° |
| 2026-05-03 22:03 | 47.97635 | -1.18173 | 35991 ft | 500 kts | 350° |
| 2026-05-03 22:04 | 48.04571 | -1.19149 | 35992 ft | 500 kts | 351° |
| 2026-05-03 22:04 | 48.11498 | -1.20125 | 35985 ft | 500 kts | 350° |
| 2026-05-03 22:05 | 48.18417 | -1.21114 | 35987 ft | 499 kts | 350° |
| 2026-05-03 22:05 | 48.25340 | -1.22100 | 35999 ft | 499 kts | 351° |
| 2026-05-03 22:06 | 48.32253 | -1.23085 | 35987 ft | 499 kts | 351° |
| 2026-05-03 22:06 | 48.39125 | -1.24057 | 35979 ft | 499 kts | 351° |
| 2026-05-03 22:07 | 48.46038 | -1.25039 | 35982 ft | 499 kts | 351° |
| 2026-05-03 22:07 | 48.52948 | -1.26040 | 35977 ft | 499 kts | 351° |
| 2026-05-03 22:08 | 48.59865 | -1.27047 | 35977 ft | 499 kts | 351° |
| 2026-05-03 22:08 | 48.66782 | -1.28041 | 35986 ft | 499 kts | 351° |
| 2026-05-03 22:09 | 48.73702 | -1.29037 | 35979 ft | 500 kts | 351° |
| 2026-05-03 22:10 | 48.84086 | -1.30564 | 35980 ft | 500 kts | 351° |
| 2026-05-03 22:10 | 48.90974 | -1.31569 | 36007 ft | 500 kts | 351° |
| 2026-05-03 22:11 | 48.97902 | -1.32574 | 35995 ft | 500 kts | 351° |
| 2026-05-03 22:11 | 49.04821 | -1.33582 | 35988 ft | 499 kts | 351° |
| 2026-05-03 22:12 | 49.11730 | -1.34608 | 35992 ft | 499 kts | 351° |
| 2026-05-03 22:12 | 49.18632 | -1.35636 | 35987 ft | 498 kts | 351° |
| 2026-05-03 22:13 | 49.25525 | -1.36652 | 35985 ft | 498 kts | 351° |
| 2026-05-03 22:13 | 49.32415 | -1.37672 | 35992 ft | 497 kts | 352° |
| 2026-05-03 22:14 | 49.39291 | -1.38692 | 35986 ft | 496 kts | 352° |
| 2026-05-03 22:14 | 49.46155 | -1.39718 | 35987 ft | 495 kts | 351° |
| 2026-05-03 22:15 | 49.53013 | -1.40739 | 36000 ft | 495 kts | 352° |
| 2026-05-03 22:15 | 49.59872 | -1.41554 | 35996 ft | 496 kts | 359° |
| 2026-05-03 22:16 | 49.66770 | -1.40988 | 35994 ft | 496 kts | 1° |
| 2026-05-03 22:16 | 49.73663 | -1.40382 | 35989 ft | 496 kts | 1° |
| 2026-05-03 22:17 | 49.80543 | -1.39776 | 35994 ft | 495 kts | 1° |
| 2026-05-03 22:17 | 49.87411 | -1.39162 | 35985 ft | 494 kts | 1° |
| 2026-05-03 22:18 | 49.94281 | -1.38553 | 35975 ft | 494 kts | 1° |
| 2026-05-03 22:18 | 50.01092 | -1.37776 | 35976 ft | 494 kts | 7° |
| 2026-05-03 22:19 | 50.07887 | -1.36097 | 35954 ft | 494 kts | 7° |
| 2026-05-03 22:19 | 50.14698 | -1.34407 | 35956 ft | 495 kts | 7° |
| 2026-05-03 22:20 | 50.21510 | -1.32716 | 35966 ft | 495 kts | 7° |
| 2026-05-03 22:20 | 50.28274 | -1.31027 | 35968 ft | 495 kts | 7° |
| 2026-05-03 22:21 | 50.35083 | -1.29306 | 35966 ft | 495 kts | 7° |
| 2026-05-03 22:21 | 50.41895 | -1.27577 | 35967 ft | 495 kts | 8° |
| 2026-05-03 22:22 | 50.48659 | -1.25541 | 35965 ft | 495 kts | 17° |
| 2026-05-03 22:22 | 50.54866 | -1.20925 | 35964 ft | 495 kts | 32° |
| 2026-05-03 22:23 | 50.60692 | -1.15130 | 35960 ft | 495 kts | 32° |
| 2026-05-03 22:23 | 50.66517 | -1.09332 | 35966 ft | 495 kts | 32° |
| 2026-05-03 22:24 | 50.72335 | -1.03535 | 35961 ft | 494 kts | 32° |
| 2026-05-03 22:24 | 50.78142 | -0.97727 | 35958 ft | 494 kts | 32° |
| 2026-05-03 22:25 | 50.84209 | -0.92708 | 35931 ft | 492 kts | 18° |
| 2026-05-03 22:25 | 50.90727 | -0.89358 | 35938 ft | 493 kts | 17° |
| 2026-05-03 22:26 | 50.97183 | -0.86020 | 35943 ft | 488 kts | 17° |
| 2026-05-03 22:26 | 51.03679 | -0.82625 | 35946 ft | 492 kts | 17° |
| 2026-05-03 22:27 | 51.10193 | -0.79224 | 35945 ft | 493 kts | 17° |
| 2026-05-03 22:27 | 51.16715 | -0.75821 | 35947 ft | 493 kts | 17° |
| 2026-05-03 22:28 | 51.23236 | -0.72406 | 35947 ft | 493 kts | 17° |
| 2026-05-03 22:28 | 51.29758 | -0.68983 | 35949 ft | 493 kts | 17° |
| 2026-05-03 22:29 | 51.36275 | -0.65559 | 35964 ft | 493 kts | 17° |
| 2026-05-03 22:29 | 51.42739 | -0.62139 | 35965 ft | 492 kts | 17° |
| 2026-05-03 22:30 | 51.49273 | -0.58664 | 35961 ft | 491 kts | 17° |
| 2026-05-03 22:30 | 51.55766 | -0.55213 | 35958 ft | 491 kts | 17° |
| 2026-05-03 22:31 | 51.62251 | -0.51769 | 35961 ft | 490 kts | 17° |
| 2026-05-03 22:31 | 51.68726 | -0.48303 | 35958 ft | 490 kts | 17° |
| 2026-05-03 22:32 | 51.75217 | -0.45257 | 35951 ft | 488 kts | 6° |
| 2026-05-03 22:32 | 51.81935 | -0.45483 | 35961 ft | 481 kts | 346° |
| 2026-05-03 22:32 | 51.85135 | -0.46953 | 35956 ft | 477 kts | 335° |
| 2026-05-03 22:33 | 51.88116 | -0.49263 | 35947 ft | 473 kts | 326° |
| 2026-05-03 22:33 | 51.93758 | -0.54752 | 35943 ft | 473 kts | 326° |
| 2026-05-03 22:34 | 51.99401 | -0.60271 | 35936 ft | 474 kts | 326° |
| 2026-05-03 22:34 | 52.05056 | -0.65813 | 35556 ft | 475 kts | 326° |
| 2026-05-03 22:34 | 52.07871 | -0.68579 | 35025 ft | 471 kts | 326° |
| 2026-05-03 22:35 | 52.10671 | -0.71333 | 34502 ft | 468 kts | 325° |
| 2026-05-03 22:35 | 52.13455 | -0.74077 | 33991 ft | 466 kts | 325° |
| 2026-05-03 22:35 | 52.16220 | -0.76806 | 33397 ft | 464 kts | 325° |
| 2026-05-03 22:35 | 52.18970 | -0.79520 | 32807 ft | 461 kts | 325° |
| 2026-05-03 22:36 | 52.21713 | -0.82228 | 32220 ft | 459 kts | 325° |
| 2026-05-03 22:36 | 52.24442 | -0.84926 | 31648 ft | 456 kts | 325° |
| 2026-05-03 22:36 | 52.27145 | -0.87609 | 31087 ft | 454 kts | 325° |
| 2026-05-03 22:36 | 52.29829 | -0.90276 | 30542 ft | 451 kts | 326° |
| 2026-05-03 22:37 | 52.32500 | -0.92935 | 29999 ft | 448 kts | 326° |
| 2026-05-03 22:37 | 52.35150 | -0.95572 | 29375 ft | 445 kts | 326° |
| 2026-05-03 22:37 | 52.36897 | -0.97312 | 28953 ft | 443 kts | 326° |
| 2026-05-03 22:37 | 52.39522 | -0.99931 | 28351 ft | 440 kts | 326° |
| 2026-05-03 22:38 | 52.42124 | -1.02533 | 27759 ft | 437 kts | 326° |
| 2026-05-03 22:38 | 52.44703 | -1.05119 | 27153 ft | 434 kts | 326° |
| 2026-05-03 22:38 | 52.47270 | -1.07698 | 26580 ft | 431 kts | 326° |
| 2026-05-03 22:38 | 52.49814 | -1.10255 | 26011 ft | 428 kts | 326° |
| 2026-05-03 22:39 | 52.52341 | -1.12796 | 25455 ft | 425 kts | 326° |
| 2026-05-03 22:39 | 52.55662 | -1.16140 | 24723 ft | 420 kts | 326° |
| 2026-05-03 22:39 | 52.57343 | -1.17832 | 24369 ft | 418 kts | 326° |
| 2026-05-03 22:39 | 52.59812 | -1.20321 | 23848 ft | 415 kts | 326° |
| 2026-05-03 22:40 | 52.62267 | -1.22803 | 23290 ft | 411 kts | 326° |
| 2026-05-03 22:40 | 52.64692 | -1.25260 | 22678 ft | 408 kts | 326° |
| 2026-05-03 22:40 | 52.67101 | -1.27708 | 22082 ft | 405 kts | 326° |
| 2026-05-03 22:40 | 52.69463 | -1.30109 | 21488 ft | 402 kts | 326° |
| 2026-05-03 22:41 | 52.71861 | -1.32549 | 20918 ft | 399 kts | 326° |
| 2026-05-03 22:41 | 52.74215 | -1.34945 | 20405 ft | 396 kts | 326° |
| 2026-05-03 22:41 | 52.76553 | -1.37321 | 19861 ft | 393 kts | 327° |
| 2026-05-03 22:41 | 52.78878 | -1.39684 | 19304 ft | 391 kts | 326° |
| 2026-05-03 22:42 | 52.81155 | -1.42003 | 18785 ft | 388 kts | 326° |
| 2026-05-03 22:42 | 52.83434 | -1.44327 | 18263 ft | 386 kts | 326° |
| 2026-05-03 22:42 | 52.85709 | -1.46655 | 17666 ft | 384 kts | 326° |
| 2026-05-03 22:42 | 52.87976 | -1.48986 | 17077 ft | 382 kts | 326° |
| 2026-05-03 22:43 | 52.90227 | -1.51305 | 16496 ft | 380 kts | 326° |
| 2026-05-03 22:43 | 52.92467 | -1.53616 | 15931 ft | 378 kts | 327° |
| 2026-05-03 22:43 | 52.94696 | -1.55919 | 15372 ft | 376 kts | 327° |
| 2026-05-03 22:43 | 52.96915 | -1.58213 | 14828 ft | 375 kts | 326° |
| 2026-05-03 22:44 | 52.99119 | -1.60490 | 14302 ft | 373 kts | 327° |
| 2026-05-03 22:44 | 53.01310 | -1.62755 | 13751 ft | 371 kts | 327° |
| 2026-05-03 22:44 | 53.03504 | -1.65024 | 13172 ft | 369 kts | 326° |
| 2026-05-03 22:44 | 53.05572 | -1.67508 | 12591 ft | 365 kts | 316° |
| 2026-05-03 22:45 | 53.07279 | -1.70614 | 12018 ft | 362 kts | 309° |
| 2026-05-03 22:45 | 53.08909 | -1.73784 | 11455 ft | 360 kts | 309° |
| 2026-05-03 22:45 | 53.10520 | -1.76904 | 10873 ft | 347 kts | 309° |
| 2026-05-03 22:45 | 53.12048 | -1.79855 | 10353 ft | 327 kts | 309° |
| 2026-05-03 22:46 | 53.13494 | -1.82643 | 9819 ft | 310 kts | 309° |
| 2026-05-03 22:46 | 53.14867 | -1.85301 | 9243 ft | 296 kts | 309° |
| 2026-05-03 22:46 | 53.16181 | -1.87853 | 8666 ft | 284 kts | 309° |
| 2026-05-03 22:46 | 53.17439 | -1.90311 | 8134 ft | 272 kts | 309° |
| 2026-05-03 22:47 | 53.18640 | -1.92665 | 7985 ft | 266 kts | 309° |
| 2026-05-03 22:47 | 53.19861 | -1.95067 | 7996 ft | 284 kts | 309° |
| 2026-05-03 22:47 | 53.21174 | -1.97646 | 7987 ft | 296 kts | 309° |
| 2026-05-03 22:47 | 53.22508 | -2.00272 | 7984 ft | 298 kts | 307° |
| 2026-05-03 22:48 | 53.23485 | -2.03230 | 7989 ft | 295 kts | 284° |
| 2026-05-03 22:48 | 53.23642 | -2.06640 | 7815 ft | 298 kts | 264° |
| 2026-05-03 22:48 | 53.23354 | -2.10070 | 7357 ft | 297 kts | 261° |
| 2026-05-03 22:48 | 53.23016 | -2.13471 | 6902 ft | 297 kts | 260° |
| 2026-05-03 22:49 | 53.22674 | -2.16859 | 6470 ft | 296 kts | 260° |
| 2026-05-03 22:49 | 53.22331 | -2.20240 | 6007 ft | 295 kts | 260° |
| 2026-05-03 22:49 | 53.21987 | -2.23605 | 5536 ft | 294 kts | 260° |
| 2026-05-03 22:49 | 53.21642 | -2.26960 | 5092 ft | 290 kts | 260° |
| 2026-05-03 22:50 | 53.21316 | -2.30110 | 4982 ft | 260 kts | 260° |
| 2026-05-03 22:50 | 53.20822 | -2.32831 | 4991 ft | 238 kts | 244° |
| 2026-05-03 22:50 | 53.20049 | -2.35244 | 4826 ft | 234 kts | 240° |
| 2026-05-03 22:50 | 53.19242 | -2.37591 | 4591 ft | 233 kts | 240° |
| 2026-05-03 22:51 | 53.18432 | -2.39942 | 4356 ft | 234 kts | 240° |
| 2026-05-03 22:51 | 53.17709 | -2.42369 | 4110 ft | 235 kts | 256° |
| 2026-05-03 22:51 | 53.17734 | -2.45002 | 3994 ft | 233 kts | 289° |
| 2026-05-03 22:51 | 53.18618 | -2.47213 | 3996 ft | 229 kts | 321° |
| 2026-05-03 22:52 | 53.19899 | -2.48706 | 3823 ft | 218 kts | 329° |
| 2026-05-03 22:52 | 53.21164 | -2.50012 | 3457 ft | 209 kts | 333° |
| 2026-05-03 22:52 | 53.22522 | -2.50502 | 3067 ft | 197 kts | 9° |
| 2026-05-03 22:52 | 53.23765 | -2.50007 | 2994 ft | 176 kts | 20° |
| 2026-05-03 22:53 | 53.24803 | -2.49090 | 2993 ft | 162 kts | 41° |
| 2026-05-03 22:53 | 53.25538 | -2.47745 | 2999 ft | 157 kts | 53° |
| 2026-05-03 22:53 | 53.26228 | -2.46333 | 2897 ft | 157 kts | 52° |
| 2026-05-03 22:53 | 53.26913 | -2.44929 | 2724 ft | 155 kts | 52° |
| 2026-05-03 22:54 | 53.27590 | -2.43539 | 2537 ft | 153 kts | 52° |
| 2026-05-03 22:54 | 53.28260 | -2.42163 | 2323 ft | 152 kts | 53° |
| 2026-05-03 22:54 | 53.28930 | -2.40785 | 2124 ft | 152 kts | 52° |
| 2026-05-03 22:54 | 53.29590 | -2.39428 | 1911 ft | 150 kts | 52° |
| 2026-05-03 22:55 | 53.30241 | -2.38088 | 1749 ft | 148 kts | 52° |
| 2026-05-03 22:55 | 53.30883 | -2.36767 | 1510 ft | 143 kts | 51° |
| 2026-05-03 22:55 | 53.31495 | -2.35507 | 1310 ft | 138 kts | 52° |
| 2026-05-03 22:55 | 53.32097 | -2.34266 | 1113 ft | 136 kts | 51° |
| 2026-05-03 22:56 | 53.32696 | -2.33030 | 917 ft | 136 kts | 50° |
| 2026-05-03 22:56 | 53.33291 | -2.31803 | 742 ft | 135 kts | 52° |
| 2026-05-03 22:56 | 53.33892 | -2.30573 | 546 ft | 138 kts | 52° |
| 2026-05-03 22:56 | 53.34492 | -2.29319 | 335 ft | 140 kts | 52° |
| 2026-05-03 22:57 | 53.35096 | -2.28075 | 237 ft | 130 kts | 51° |
| 2026-05-03 22:57 | 53.35555 | -2.27122 | 253 ft | 76 kts | 51° |
| 2026-05-03 22:57 | 53.35744 | -2.26733 | 269 ft | 19 kts | 50° |
| 2026-05-03 22:57 | 53.35849 | -2.26689 | 266 ft | 18 kts | 347° |
| 2026-05-03 22:58 | 53.35908 | -2.26813 | 256 ft | 16 kts | 246° |
| 2026-05-03 22:58 | 53.35860 | -2.26923 | 256 ft | 10 kts | 233° |
| 2026-05-03 22:58 | 53.35824 | -2.27022 | 255 ft | 10 kts | 239° |
| 2026-05-03 22:58 | 53.35787 | -2.27109 | 255 ft | 9 kts | 232° |
| 2026-05-03 22:59 | 53.35751 | -2.27185 | 255 ft | 8 kts | 232° |
| 2026-05-03 22:59 | 53.35719 | -2.27251 | 255 ft | 7 kts | 230° |
| 2026-05-03 22:59 | 53.35678 | -2.27333 | 255 ft | 14 kts | 231° |
| 2026-05-03 22:59 | 53.35614 | -2.27473 | 245 ft | 7 kts | 254° |
| 2026-05-03 23:00 | 53.35642 | -2.27551 | 246 ft | 13 kts | 316° |
| 2026-05-03 23:00 | 53.35727 | -2.27644 | 248 ft | 13 kts | 338° |
| 2026-05-03 23:00 | 53.35801 | -2.27709 | 252 ft | 12 kts | 313° |
| 2026-05-03 23:00 | 53.35861 | -2.27822 | 253 ft | 12 kts | 321° |
| 2026-05-03 23:01 | 53.35944 | -2.27857 | 255 ft | 13 kts | 346° |
| 2026-05-03 23:01 | 53.36024 | -2.27950 | 255 ft | 15 kts | 319° |
| 2026-05-03 23:01 | 53.36106 | -2.28067 | 255 ft | 16 kts | 318° |
| 2026-05-03 23:01 | 53.36177 | -2.28182 | 255 ft | 15 kts | 314° |
| 2026-05-03 23:02 | 53.36254 | -2.28314 | 255 ft | 17 kts | 315° |
| 2026-05-03 23:02 | 53.36334 | -2.28448 | 255 ft | 12 kts | 320° |
| 2026-05-03 23:02 | 53.36419 | -2.28505 | 255 ft | 14 kts | 332° |
| 2026-05-03 23:02 | 53.36497 | -2.28617 | 255 ft | 14 kts | 315° |
| 2026-05-03 23:03 | 53.36571 | -2.28740 | 255 ft | 15 kts | 314° |
| 2026-05-03 23:03 | 53.36640 | -2.28733 | 255 ft | 13 kts | 61° |
| 2026-05-03 23:03 | 53.36683 | -2.28643 | 255 ft | 8 kts | 44° |
| 2026-05-03 23:03 | 53.36728 | -2.28569 | 255 ft | 9 kts | 45° |
| 2026-05-03 23:04 | 53.36753 | -2.28529 | 255 ft | 4 kts | 44° |
| 2026-05-03 23:04 | 53.36759 | -2.28504 | 255 ft | 1 kts | 96° |
| 2026-05-03 23:04 | 53.36750 | -2.28480 | 255 ft | 4 kts | 126° |
| 2026-05-03 23:04 | 53.36739 | -2.28459 | 255 ft | 1 kts | 134° |
| 2026-05-03 23:05 | 53.36736 | -2.28455 | 255 ft | 0 kts | 135° |